Time;durP1;ratioP1;P1;durP2;ratioP2;P2;SDS_P1;SDS_P2;PMS_P1;PMS_P2;Temp;Humidity;BMP_temperature;BMP_pressure;BME280_temperature;BME280_humidity;BME280_pressure;Samples;Min_cycle;Max_cycle;Signal;HPM_P1;HPM_P2
2021/06/21 00:00:50;;;;;;;6.95;3.70;;;;;;;;;;4860226;29;20040;-65
2021/06/21 00:03:16;;;;;;;3.80;2.60;;;;;;;;;;4860346;29;20093;-65
2021/06/21 00:05:43;;;;;;;5.60;3.00;;;;;;;;;;4860550;29;20037;-66
2021/06/21 00:08:09;;;;;;;3.17;2.22;;;;;;;;;;4859915;29;20056;-68
2021/06/21 00:10:35;;;;;;;3.75;2.47;;;;;;;;;;4860424;29;20037;-66
2021/06/21 00:13:01;;;;;;;5.85;2.40;;;;;;;;;;4860320;29;20029;-66
2021/06/21 00:15:27;;;;;;;4.50;2.40;;;;;;;;;;4860178;29;20034;-66
2021/06/21 00:17:53;;;;;;;5.22;2.70;;;;;;;;;;4860146;29;20040;-65
2021/06/21 00:20:21;;;;;;;7.05;2.22;;;;;;;;;;4860412;29;20043;-66
2021/06/21 00:22:47;;;;;;;4.75;2.08;;;;;;;;;;4860264;29;20550;-66
2021/06/21 00:25:14;;;;;;;3.78;2.17;;;;;;;;;;4860103;29;20034;-66
2021/06/21 00:27:40;;;;;;;3.65;2.00;;;;;;;;;;4860246;29;20034;-66
2021/06/21 00:30:09;;;;;;;3.92;1.80;;;;;;;;;;4860017;29;20049;-66
2021/06/21 00:32:35;;;;;;;3.17;1.60;;;;;;;;;;4860511;29;20025;-65
2021/06/21 00:35:01;;;;;;;2.72;2.10;;;;;;;;;;4860038;29;20026;-70
2021/06/21 00:37:27;;;;;;;3.50;2.30;;;;;;;;;;4859873;29;20044;-69
2021/06/21 00:39:53;;;;;;;5.22;2.10;;;;;;;;;;4859643;29;20033;-70
2021/06/21 00:42:19;;;;;;;3.15;2.10;;;;;;;;;;4859909;29;20051;-69
2021/06/21 00:44:46;;;;;;;2.38;1.90;;;;;;;;;;4859780;29;20108;-70
2021/06/21 00:47:13;;;;;;;3.42;2.25;;;;;;;;;;4859765;29;20030;-70
2021/06/21 00:49:40;;;;;;;4.07;2.45;;;;;;;;;;4859558;29;20049;-66
2021/06/21 00:52:11;;;;;;;5.03;2.63;;;;;;;;;;4859818;29;20037;-66
2021/06/21 00:54:37;;;;;;;2.72;2.05;;;;;;;;;;4859804;29;20041;-66
2021/06/21 00:57:03;;;;;;;3.58;2.33;;;;;;;;;;4859664;29;20070;-66
2021/06/21 00:59:30;;;;;;;3.88;2.53;;;;;;;;;;4842374;29;20037;-67
2021/06/21 01:01:56;;;;;;;3.75;2.60;;;;;;;;;;4859326;29;20490;-64
2021/06/21 01:04:22;;;;;;;4.32;2.30;;;;;;;;;;4859567;29;20501;-65
2021/06/21 01:06:48;;;;;;;3.75;2.10;;;;;;;;;;4859505;29;20036;-64
2021/06/21 01:09:14;;;;;;;3.28;2.22;;;;;;;;;;4859034;29;20068;-66
2021/06/21 01:11:52;;;;;;;3.75;2.35;;;;;;;;;;4859478;29;20036;-67
2021/06/21 01:14:21;;;;;;;4.20;2.50;;;;;;;;;;4859141;29;20108;-66
2021/06/21 01:17:10;;;;;;;4.60;2.40;;;;;;;;;;4859174;29;20094;-68
2021/06/21 01:19:52;;;;;;;4.35;2.70;;;;;;;;;;4859147;29;20513;-65
2021/06/21 01:22:34;;;;;;;3.85;2.38;;;;;;;;;;4859375;29;20034;-68
2021/06/21 01:25:18;;;;;;;3.00;2.05;;;;;;;;;;4859237;29;20038;-65
2021/06/21 01:27:50;;;;;;;3.15;2.20;;;;;;;;;;4859196;29;20066;-65
2021/06/21 01:30:18;;;;;;;3.35;2.20;;;;;;;;;;4859195;29;20041;-66
2021/06/21 01:32:50;;;;;;;3.60;2.20;;;;;;;;;;4859398;29;20021;-67
2021/06/21 01:35:27;;;;;;;3.22;2.33;;;;;;;;;;4859124;29;20101;-69
2021/06/21 01:37:54;;;;;;;3.70;2.42;;;;;;;;;;4858916;29;20029;-70
2021/06/21 01:40:21;;;;;;;3.20;2.58;;;;;;;;;;4859171;29;20033;-69
2021/06/21 01:42:50;;;;;;;3.17;2.30;;;;;;;;;;4859022;29;20082;-70
2021/06/21 01:45:17;;;;;;;4.65;2.20;;;;;;;;;;4858951;29;20036;-68
2021/06/21 01:47:46;;;;;;;3.25;2.50;;;;;;;;;;4859102;29;20022;-68
2021/06/21 01:50:15;;;;;;;3.03;2.22;;;;;;;;;;4858746;29;20041;-64
2021/06/21 01:52:42;;;;;;;5.22;2.40;;;;;;;;;;4858862;29;20110;-66
2021/06/21 01:55:09;;;;;;;3.50;2.28;;;;;;;;;;4858984;29;20390;-67
2021/06/21 01:57:36;;;;;;;4.88;2.40;;;;;;;;;;4858868;29;20109;-66
2021/06/21 02:00:06;;;;;;;2.58;2.17;;;;;;;;;;4858836;29;20032;-67
2021/06/21 02:02:32;;;;;;;3.97;2.40;;;;;;;;;;4860797;29;20029;-64
2021/06/21 05:19:52;;;;;;;5.72;3.05;;;;;;;;;;5192380;23;20188;-62
2021/06/21 05:22:18;;;;;;;7.90;2.90;;;;;;;;;;4895498;29;20120;-64
2021/06/21 05:24:44;;;;;;;6.63;3.30;;;;;;;;;;4896161;29;20032;-65
2021/06/21 05:27:10;;;;;;;6.35;2.90;;;;;;;;;;4878496;29;20494;-67
2021/06/21 05:29:36;;;;;;;6.90;3.10;;;;;;;;;;4895687;29;20053;-67
2021/06/21 05:32:03;;;;;;;3.17;2.50;;;;;;;;;;4895625;29;20660;-66
2021/06/21 05:34:29;;;;;;;10.05;3.00;;;;;;;;;;4895574;29;20040;-67
2021/06/21 05:36:56;;;;;;;7.63;3.10;;;;;;;;;;4895634;29;20039;-65
2021/06/21 05:39:22;;;;;;;7.78;3.38;;;;;;;;;;4895639;29;20033;-65
2021/06/21 05:41:48;;;;;;;6.93;3.10;;;;;;;;;;4895715;29;20116;-65
2021/06/21 05:44:14;;;;;;;6.40;3.10;;;;;;;;;;4896102;29;20107;-66
2021/06/21 05:46:40;;;;;;;6.30;2.97;;;;;;;;;;4899757;29;20028;-66
2021/06/21 05:49:06;;;;;;;4.45;2.97;;;;;;;;;;4899144;29;20056;-65
2021/06/21 05:51:33;;;;;;;8.60;3.60;;;;;;;;;;4882989;29;20040;-66
2021/06/21 05:53:59;;;;;;;8.30;3.80;;;;;;;;;;4899405;29;20068;-66
2021/06/21 05:56:25;;;;;;;17.23;4.03;;;;;;;;;;4899578;29;20037;-65
2021/06/21 05:58:51;;;;;;;13.95;5.18;;;;;;;;;;4899521;29;20040;-65
2021/06/21 06:01:18;;;;;;;9.02;4.63;;;;;;;;;;4899232;29;20115;-66
2021/06/21 06:03:44;;;;;;;6.38;4.30;;;;;;;;;;4881887;29;20112;-64
2021/06/21 06:06:10;;;;;;;10.32;4.65;;;;;;;;;;4893063;29;20029;-67
2021/06/21 06:08:36;;;;;;;6.97;4.03;;;;;;;;;;4881099;29;20036;-63
2021/06/21 06:11:03;;;;;;;6.75;3.70;;;;;;;;;;4880311;29;20121;-62
2021/06/21 06:13:29;;;;;;;5.20;3.30;;;;;;;;;;4880375;29;20037;-65
2021/06/21 06:15:55;;;;;;;4.40;3.20;;;;;;;;;;4880060;29;20060;-63
2021/06/21 06:18:21;;;;;;;8.77;2.97;;;;;;;;;;4880219;29;20029;-65
2021/06/21 06:20:47;;;;;;;7.85;3.40;;;;;;;;;;4879916;29;20048;-66
2021/06/21 06:23:13;;;;;;;5.80;3.30;;;;;;;;;;4898545;29;20039;-64
2021/06/21 06:25:39;;;;;;;7.50;3.92;;;;;;;;;;4898652;29;20031;-65
2021/06/21 06:28:06;;;;;;;6.82;3.70;;;;;;;;;;4898638;29;20071;-65
2021/06/21 06:30:32;;;;;;;7.63;3.55;;;;;;;;;;4898703;29;20044;-68
2021/06/21 06:32:58;;;;;;;6.07;3.30;;;;;;;;;;4898635;29;20706;-68
2021/06/21 06:35:24;;;;;;;6.45;3.38;;;;;;;;;;4898691;29;20515;-67
2021/06/21 06:37:51;;;;;;;6.40;3.63;;;;;;;;;;4898532;29;20469;-67
2021/06/21 06:40:17;;;;;;;7.13;3.58;;;;;;;;;;4898515;29;20401;-66
2021/06/21 06:42:45;;;;;;;8.77;3.80;;;;;;;;;;4898301;29;20103;-64
2021/06/21 06:45:11;;;;;;;10.48;4.40;;;;;;;;;;4897610;29;20044;-66
2021/06/21 06:47:38;;;;;;;6.47;4.25;;;;;;;;;;4897668;29;20033;-66
2021/06/21 06:50:05;;;;;;;13.38;5.07;;;;;;;;;;4897967;29;20045;-70
2021/06/21 06:52:32;;;;;;;10.02;4.57;;;;;;;;;;4881160;29;20036;-66
2021/06/21 06:57:34;;;;;;;9.00;5.10;;;;;;;;;;4897516;29;20036;-66
2021/06/21 07:00:00;;;;;;;12.68;5.38;;;;;;;;;;4898005;29;20025;-65
2021/06/21 07:02:26;;;;;;;7.82;4.80;;;;;;;;;;4888966;29;20116;-65
2021/06/21 07:04:52;;;;;;;11.23;7.32;;;;;;;;;;4888236;29;20036;-66
2021/06/21 07:07:20;;;;;;;7.97;5.15;;;;;;;;;;4887191;29;20036;-67
2021/06/21 07:09:46;;;;;;;8.07;4.40;;;;;;;;;;4886854;29;20495;-64
2021/06/21 07:12:12;;;;;;;7.63;4.80;;;;;;;;;;4888266;29;20040;-65
2021/06/21 07:14:38;;;;;;;7.63;4.55;;;;;;;;;;4887234;29;20033;-66
2021/06/21 07:17:05;;;;;;;7.53;4.57;;;;;;;;;;4888314;29;20080;-64
2021/06/21 07:19:31;;;;;;;7.15;4.18;;;;;;;;;;4897325;29;20060;-66
2021/06/21 07:21:57;;;;;;;8.07;4.35;;;;;;;;;;4891587;29;20025;-63
2021/06/21 07:24:24;;;;;;;8.05;4.60;;;;;;;;;;4888558;29;20068;-63
2021/06/21 07:26:51;;;;;;;8.13;4.60;;;;;;;;;;4894741;29;20088;-64
2021/06/21 07:29:17;;;;;;;11.40;4.97;;;;;;;;;;4897093;29;20132;-66
2021/06/21 07:31:44;;;;;;;10.07;5.35;;;;;;;;;;4896767;29;20380;-65
2021/06/21 07:34:10;;;;;;;9.70;5.05;;;;;;;;;;4895349;29;20471;-66
2021/06/21 07:36:37;;;;;;;8.60;5.15;;;;;;;;;;4896781;29;20472;-63
2021/06/21 07:39:04;;;;;;;9.20;5.47;;;;;;;;;;4897058;29;20029;-64
2021/06/21 07:41:30;;;;;;;9.95;5.10;;;;;;;;;;4896879;29;20089;-62
2021/06/21 07:43:56;;;;;;;7.65;4.95;;;;;;;;;;4896733;29;20544;-66
2021/06/21 07:46:22;;;;;;;7.82;4.63;;;;;;;;;;4879708;29;20044;-62
2021/06/21 07:48:49;;;;;;;9.05;5.00;;;;;;;;;;4896287;29;20024;-64
2021/06/21 07:51:15;;;;;;;12.40;4.80;;;;;;;;;;4896916;29;20511;-70
2021/06/21 07:53:42;;;;;;;12.88;4.85;;;;;;;;;;4896460;29;20029;-67
2021/06/21 07:56:09;;;;;;;7.95;4.93;;;;;;;;;;4896372;29;20039;-66
2021/06/21 07:58:39;;;;;;;9.43;5.20;;;;;;;;;;4896078;29;20033;-67
2021/06/21 08:01:05;;;;;;;9.73;5.47;;;;;;;;;;4896002;29;20048;-66
2021/06/21 08:03:32;;;;;;;9.00;5.50;;;;;;;;;;4896478;29;20033;-68
2021/06/21 08:06:02;;;;;;;12.38;5.45;;;;;;;;;;4896118;29;20096;-67
2021/06/21 08:08:28;;;;;;;9.45;5.50;;;;;;;;;;4896367;29;20481;-66
2021/06/21 08:10:55;;;;;;;10.70;6.05;;;;;;;;;;4896712;29;20048;-66
2021/06/21 08:13:21;;;;;;;12.05;6.45;;;;;;;;;;4896215;29;20033;-67
2021/06/21 08:15:47;;;;;;;12.05;6.22;;;;;;;;;;4895793;29;20079;-64
2021/06/21 08:18:13;;;;;;;14.10;6.10;;;;;;;;;;4896369;29;20021;-66
2021/06/21 08:20:43;;;;;;;8.70;5.38;;;;;;;;;;4895786;29;20056;-65
2021/06/21 08:23:09;;;;;;;6.18;4.28;;;;;;;;;;4896007;29;20505;-66
2021/06/21 08:25:35;;;;;;;9.77;5.05;;;;;;;;;;4896190;29;20028;-66
2021/06/21 08:28:02;;;;;;;8.20;4.85;;;;;;;;;;4895272;29;20385;-67
2021/06/21 08:30:28;;;;;;;8.32;4.50;;;;;;;;;;4895191;29;20176;-67
2021/06/21 08:32:54;;;;;;;7.65;4.68;;;;;;;;;;4895843;29;20437;-65
2021/06/21 08:35:20;;;;;;;6.30;4.57;;;;;;;;;;4896096;29;20036;-65
2021/06/21 08:37:46;;;;;;;6.90;4.50;;;;;;;;;;4895792;29;20020;-66
2021/06/21 08:40:15;;;;;;;11.45;4.70;;;;;;;;;;4894688;29;20392;-65
2021/06/21 08:42:41;;;;;;;9.48;4.20;;;;;;;;;;4884162;29;20040;-67
2021/06/21 08:45:08;;;;;;;7.40;4.40;;;;;;;;;;4887227;29;20492;-65
2021/06/21 08:47:34;;;;;;;8.02;4.90;;;;;;;;;;4882872;29;20032;-65
2021/06/21 08:50:01;;;;;;;8.60;4.72;;;;;;;;;;4887629;29;20592;-66
2021/06/21 08:52:27;;;;;;;7.40;4.55;;;;;;;;;;4879601;29;20543;-64
2021/06/21 08:55:02;;;;;;;6.07;4.60;;;;;;;;;;4860716;29;20132;-64
2021/06/21 08:57:28;;;;;;;9.57;4.50;;;;;;;;;;4861960;29;20057;-64
2021/06/21 08:59:54;;;;;;;8.23;5.22;;;;;;;;;;4877611;29;20033;-64
2021/06/21 09:02:20;;;;;;;9.55;4.40;;;;;;;;;;4877122;29;20147;-64
2021/06/21 09:04:47;;;;;;;7.15;4.15;;;;;;;;;;4876714;29;20033;-65
2021/06/21 09:07:22;;;;;;;7.50;3.97;;;;;;;;;;4882401;29;20041;-65
2021/06/21 09:09:48;;;;;;;9.95;4.22;;;;;;;;;;4885671;29;20507;-64
2021/06/21 09:12:23;;;;;;;6.53;4.15;;;;;;;;;;4886634;29;20025;-67
2021/06/21 09:14:50;;;;;;;6.55;3.92;;;;;;;;;;4886618;29;20035;-65
2021/06/21 09:17:19;;;;;;;6.32;3.92;;;;;;;;;;4886527;29;20480;-65
2021/06/21 09:19:56;;;;;;;6.80;4.25;;;;;;;;;;4880988;29;20061;-64
2021/06/21 09:22:33;;;;;;;5.93;4.25;;;;;;;;;;4888568;29;20032;-65
2021/06/21 09:25:06;;;;;;;7.90;3.97;;;;;;;;;;4887002;29;20504;-65
2021/06/21 09:27:33;;;;;;;5.75;3.95;;;;;;;;;;4886008;29;20028;-66
2021/06/21 09:30:04;;;;;;;6.07;3.63;;;;;;;;;;4892255;29;20072;-66
2021/06/21 09:32:39;;;;;;;7.88;4.10;;;;;;;;;;4895275;29;20065;-63
2021/06/21 09:35:06;;;;;;;4.55;3.70;;;;;;;;;;4892346;29;20040;-63
2021/06/21 09:37:42;;;;;;;5.40;3.78;;;;;;;;;;4893653;29;20495;-64
2021/06/21 09:40:08;;;;;;;5.43;3.92;;;;;;;;;;4887921;29;20108;-65
2021/06/21 09:42:36;;;;;;;7.35;3.90;;;;;;;;;;4876446;29;20204;-67
2021/06/21 09:45:03;;;;;;;7.22;4.05;;;;;;;;;;4880314;29;20025;-63
2021/06/21 09:47:31;;;;;;;6.53;3.83;;;;;;;;;;4882278;29;20081;-63
2021/06/21 09:50:16;;;;;;;5.95;3.55;;;;;;;;;;4880681;29;20037;-63
2021/06/21 09:52:42;;;;;;;5.70;3.80;;;;;;;;;;4894709;29;20734;-64
2021/06/21 09:55:23;;;;;;;6.30;3.85;;;;;;;;;;4894386;29;20600;-61
2021/06/21 09:58:04;;;;;;;6.03;4.20;;;;;;;;;;4894588;29;20110;-62
2021/06/21 10:00:31;;;;;;;4.18;3.60;;;;;;;;;;4892925;29;20135;-64
2021/06/21 10:03:15;;;;;;;6.88;3.80;;;;;;;;;;4894166;29;20036;-62
2021/06/21 10:05:44;;;;;;;9.57;4.15;;;;;;;;;;4876432;29;20373;-64
2021/06/21 10:08:12;;;;;;;4.25;3.75;;;;;;;;;;4893154;29;20031;-63
2021/06/21 10:10:39;;;;;;;5.03;4.10;;;;;;;;;;4893094;29;20086;-67
2021/06/21 10:13:05;;;;;;;5.75;3.75;;;;;;;;;;4892420;29;20035;-65
2021/06/21 10:15:32;;;;;;;5.50;4.43;;;;;;;;;;4894064;29;20037;-63
2021/06/21 10:17:58;;;;;;;6.50;4.20;;;;;;;;;;4889401;29;20028;-62
2021/06/21 10:20:24;;;;;;;7.32;4.15;;;;;;;;;;4890475;29;20105;-65
2021/06/21 10:22:51;;;;;;;5.93;3.95;;;;;;;;;;4892084;29;20113;-66
2021/06/21 10:25:17;;;;;;;7.95;4.15;;;;;;;;;;4890356;29;20115;-64
2021/06/21 10:27:44;;;;;;;7.45;4.38;;;;;;;;;;4894150;29;20035;-65
2021/06/21 10:30:15;;;;;;;11.10;4.20;;;;;;;;;;4894769;29;20048;-64
2021/06/21 10:32:41;;;;;;;6.22;4.15;;;;;;;;;;4897422;29;20099;-66
2021/06/21 10:35:09;;;;;;;8.10;4.40;;;;;;;;;;4894505;29;20136;-66
2021/06/21 10:37:38;;;;;;;5.45;4.10;;;;;;;;;;4889422;29;20025;-66
2021/06/21 10:40:08;;;;;;;5.47;3.85;;;;;;;;;;4881642;29;20031;-65
2021/06/21 10:42:37;;;;;;;6.05;4.43;;;;;;;;;;4889097;29;20032;-65
2021/06/21 10:45:06;;;;;;;5.45;3.70;;;;;;;;;;4890514;29;20032;-65
2021/06/21 10:47:43;;;;;;;7.22;4.20;;;;;;;;;;4885758;29;20851;-64
2021/06/21 10:50:20;;;;;;;5.43;3.40;;;;;;;;;;4888764;29;20044;-65
2021/06/21 10:52:52;;;;;;;5.63;3.97;;;;;;;;;;4882079;29;20029;-64
2021/06/21 10:55:27;;;;;;;7.18;4.30;;;;;;;;;;4881106;29;20033;-65
2021/06/21 10:57:53;;;;;;;5.78;4.00;;;;;;;;;;4886050;29;20044;-64
2021/06/21 11:00:21;;;;;;;8.63;4.50;;;;;;;;;;4885373;29;20045;-64
2021/06/21 11:02:47;;;;;;;7.15;4.22;;;;;;;;;;4887183;29;20020;-68
2021/06/21 11:05:31;;;;;;;7.28;5.22;;;;;;;;;;4894852;29;20115;-65
2021/06/21 11:08:14;;;;;;;8.50;5.00;;;;;;;;;;4896983;29;20068;-67
2021/06/21 11:10:40;;;;;;;7.78;5.15;;;;;;;;;;4897445;29;20044;-65
2021/06/21 11:13:25;;;;;;;9.38;5.60;;;;;;;;;;4897308;29;20080;-67
2021/06/21 11:16:09;;;;;;;5.75;3.55;;;;;;;;;;4896767;29;20033;-65
2021/06/21 11:18:35;;;;;;;7.72;3.95;;;;;;;;;;4896488;29;20056;-64
2021/06/21 11:21:12;;;;;;;7.30;4.03;;;;;;;;;;4897023;29;20053;-66
2021/06/21 11:23:39;;;;;;;13.82;8.38;;;;;;;;;;4897534;29;20063;-65
2021/06/21 11:26:05;;;;;;;15.50;10.48;;;;;;;;;;4897237;29;20509;-64
2021/06/21 11:28:39;;;;;;;14.52;8.00;;;;;;;;;;4897329;29;20029;-69
2021/06/21 11:31:23;;;;;;;11.02;6.53;;;;;;;;;;4896656;29;20040;-68
2021/06/21 11:33:58;;;;;;;12.30;6.13;;;;;;;;;;4897962;29;20033;-66
2021/06/21 11:36:39;;;;;;;8.05;4.93;;;;;;;;;;4897033;29;20029;-67
2021/06/21 11:39:25;;;;;;;13.63;4.97;;;;;;;;;;4896645;29;20076;-66
2021/06/21 11:42:02;;;;;;;7.53;4.10;;;;;;;;;;4893263;29;20380;-64
2021/06/21 11:44:40;;;;;;;8.88;5.10;;;;;;;;;;4891581;29;20044;-65
2021/06/21 11:47:15;;;;;;;10.27;6.10;;;;;;;;;;4894975;29;20103;-67
2021/06/21 11:49:44;;;;;;;7.78;6.13;;;;;;;;;;4893532;29;20104;-65
2021/06/21 11:52:11;;;;;;;8.10;4.10;;;;;;;;;;4896181;29;20393;-65
2021/06/21 11:54:41;;;;;;;6.65;4.40;;;;;;;;;;4886905;29;20037;-64
2021/06/21 11:57:07;;;;;;;8.43;5.32;;;;;;;;;;4894608;29;20465;-66
2021/06/21 11:59:37;;;;;;;9.05;5.45;;;;;;;;;;4893938;29;20497;-67
2021/06/21 12:02:11;;;;;;;5.70;4.45;;;;;;;;;;4894285;29;20071;-65
2021/06/21 12:04:38;;;;;;;6.15;4.40;;;;;;;;;;4896082;29;20393;-67
2021/06/21 12:07:05;;;;;;;9.30;4.43;;;;;;;;;;4895857;29;20025;-66
2021/06/21 12:09:31;;;;;;;5.90;4.18;;;;;;;;;;4896010;29;20032;-66
2021/06/21 12:11:57;;;;;;;7.03;4.30;;;;;;;;;;4890246;29;20437;-66
2021/06/21 12:14:24;;;;;;;5.60;4.32;;;;;;;;;;4893908;29;20029;-65
2021/06/21 12:16:51;;;;;;;8.80;4.57;;;;;;;;;;4895694;29;20112;-66
2021/06/21 12:19:23;;;;;;;6.47;4.15;;;;;;;;;;4895319;29;20037;-68
2021/06/21 12:21:50;;;;;;;6.50;4.20;;;;;;;;;;4896383;29;20473;-67
2021/06/21 12:24:19;;;;;;;6.88;3.95;;;;;;;;;;4896266;29;20033;-68
2021/06/21 12:26:46;;;;;;;7.38;4.03;;;;;;;;;;4896671;29;20036;-66
2021/06/21 12:29:25;;;;;;;6.82;4.40;;;;;;;;;;4896203;29;20107;-68
2021/06/21 12:31:53;;;;;;;8.52;4.10;;;;;;;;;;4896047;29;20376;-70
2021/06/21 12:34:19;;;;;;;5.72;4.50;;;;;;;;;;4895735;29;20241;-68
2021/06/21 12:36:45;;;;;;;7.35;4.28;;;;;;;;;;4896480;29;20504;-68
2021/06/21 12:39:11;;;;;;;8.57;4.45;;;;;;;;;;4895903;29;20084;-68
2021/06/21 12:41:38;;;;;;;7.57;5.00;;;;;;;;;;4896213;29;20042;-68
2021/06/21 12:44:05;;;;;;;10.88;4.20;;;;;;;;;;4895455;29;20515;-68
2021/06/21 12:46:32;;;;;;;6.57;4.65;;;;;;;;;;4895481;29;20035;-69
2021/06/21 12:49:00;;;;;;;5.78;4.30;;;;;;;;;;4895662;29;20028;-66
2021/06/21 12:51:26;;;;;;;9.80;4.80;;;;;;;;;;4896264;29;20123;-68
2021/06/21 12:53:54;;;;;;;6.15;4.30;;;;;;;;;;4895264;29;20377;-67
2021/06/21 12:56:26;;;;;;;8.82;4.70;;;;;;;;;;4895945;29;20029;-67
2021/06/21 12:58:52;;;;;;;12.30;5.03;;;;;;;;;;4895909;29;20025;-68
2021/06/21 13:01:23;;;;;;;12.30;5.72;;;;;;;;;;4895320;29;20028;-66
2021/06/21 13:03:49;;;;;;;9.13;5.00;;;;;;;;;;4895659;29;20117;-66
2021/06/21 13:06:28;;;;;;;8.57;4.30;;;;;;;;;;4895640;29;20060;-69
2021/06/21 13:08:59;;;;;;;7.07;4.32;;;;;;;;;;4895680;29;20024;-68
2021/06/21 13:11:25;;;;;;;6.95;4.47;;;;;;;;;;4895748;29;20040;-68
2021/06/21 13:13:51;;;;;;;7.75;4.30;;;;;;;;;;4895571;29;20115;-66
2021/06/21 13:16:21;;;;;;;8.13;4.70;;;;;;;;;;4894400;29;20031;-67
2021/06/21 13:18:48;;;;;;;9.95;4.88;;;;;;;;;;4894892;29;20389;-67
2021/06/21 13:21:14;;;;;;;8.48;4.90;;;;;;;;;;4894186;29;20555;-67
2021/06/21 13:23:50;;;;;;;5.43;4.05;;;;;;;;;;4894482;29;20116;-66
2021/06/21 13:26:16;;;;;;;9.18;5.30;;;;;;;;;;4895431;29;20029;-66
2021/06/21 13:28:43;;;;;;;10.80;5.13;;;;;;;;;;4894348;29;20029;-66
2021/06/21 13:31:11;;;;;;;13.30;6.75;;;;;;;;;;4888730;29;20462;-67
2021/06/21 13:33:45;;;;;;;8.98;4.75;;;;;;;;;;4893270;29;20889;-68
2021/06/21 13:36:11;;;;;;;10.18;4.60;;;;;;;;;;4894455;29;20064;-67
2021/06/21 13:38:37;;;;;;;8.80;5.30;;;;;;;;;;4895226;29;20033;-67
2021/06/21 13:41:16;;;;;;;7.85;4.72;;;;;;;;;;4894827;29;20033;-64
2021/06/21 13:43:42;;;;;;;8.98;5.22;;;;;;;;;;4893590;29;20032;-68
2021/06/21 13:46:12;;;;;;;8.05;4.85;;;;;;;;;;4894754;29;20107;-68
2021/06/21 13:48:39;;;;;;;7.15;4.80;;;;;;;;;;4884399;29;20102;-67
2021/06/21 13:51:14;;;;;;;9.35;5.10;;;;;;;;;;4886609;29;20040;-68
2021/06/21 13:53:40;;;;;;;8.60;4.68;;;;;;;;;;4893777;29;20107;-66
2021/06/21 13:56:08;;;;;;;12.60;4.88;;;;;;;;;;4894286;29;20028;-67
2021/06/21 13:58:35;;;;;;;8.23;4.43;;;;;;;;;;4895046;29;20447;-65
2021/06/21 14:01:16;;;;;;;8.25;5.18;;;;;;;;;;4895249;29;20059;-67
2021/06/21 14:03:43;;;;;;;7.20;5.03;;;;;;;;;;4895712;29;20097;-70
2021/06/21 14:06:09;;;;;;;7.97;4.65;;;;;;;;;;4897493;29;20029;-65
2021/06/21 14:08:36;;;;;;;7.65;4.15;;;;;;;;;;4899251;29;20516;-65
2021/06/21 14:11:05;;;;;;;8.57;4.85;;;;;;;;;;4882189;29;20434;-65
2021/06/21 14:13:31;;;;;;;8.98;4.53;;;;;;;;;;4899138;29;20040;-66
2021/06/21 14:15:57;;;;;;;6.88;4.60;;;;;;;;;;4898978;29;20106;-65
2021/06/21 14:18:25;;;;;;;7.95;4.38;;;;;;;;;;4899145;29;20033;-64
2021/06/21 14:20:51;;;;;;;8.57;4.35;;;;;;;;;;4898517;29;20056;-66
2021/06/21 14:23:17;;;;;;;8.55;4.50;;;;;;;;;;4898962;29;20043;-67
2021/06/21 14:25:44;;;;;;;6.82;4.32;;;;;;;;;;4898896;29;20023;-66
2021/06/21 14:28:10;;;;;;;11.55;4.65;;;;;;;;;;4898279;29;20032;-67
2021/06/21 14:30:37;;;;;;;9.00;4.32;;;;;;;;;;4898811;29;20041;-67
2021/06/21 14:33:04;;;;;;;8.32;4.40;;;;;;;;;;4898995;29;20039;-66
2021/06/21 14:35:30;;;;;;;7.70;4.38;;;;;;;;;;4899194;29;20400;-67
2021/06/21 14:37:56;;;;;;;9.85;4.40;;;;;;;;;;4898690;29;20032;-65
2021/06/21 14:40:22;;;;;;;8.80;4.20;;;;;;;;;;4898736;29;20543;-67
2021/06/21 14:42:48;;;;;;;6.75;4.38;;;;;;;;;;4898387;29;20424;-66
2021/06/21 14:45:14;;;;;;;6.32;4.60;;;;;;;;;;4897339;29;20036;-66
2021/06/21 14:47:40;;;;;;;7.43;4.60;;;;;;;;;;4898585;29;20105;-66
2021/06/21 14:52:34;;;;;;;10.07;4.45;;;;;;;;;;4898117;29;20377;-67
2021/06/21 14:55:04;;;;;;;8.75;4.35;;;;;;;;;;4898349;29;20032;-67
2021/06/21 14:57:37;;;;;;;5.88;4.13;;;;;;;;;;4898521;29;20112;-66
2021/06/21 15:00:07;;;;;;;8.98;4.53;;;;;;;;;;4898228;29;20502;-67
2021/06/21 15:02:34;;;;;;;6.32;4.05;;;;;;;;;;4898017;29;20036;-66
2021/06/21 15:05:02;;;;;;;9.75;4.90;;;;;;;;;;4898335;29;20380;-70
2021/06/21 15:07:28;;;;;;;8.30;5.03;;;;;;;;;;4897577;29;20021;-70
2021/06/21 15:09:54;;;;;;;8.35;4.82;;;;;;;;;;4897721;29;20037;-66
2021/06/21 15:12:20;;;;;;;12.00;5.65;;;;;;;;;;4898155;29;20025;-69
2021/06/21 15:14:46;;;;;;;8.88;4.80;;;;;;;;;;4897143;29;20037;-67
2021/06/21 15:17:12;;;;;;;9.65;5.25;;;;;;;;;;4897160;29;20115;-67
2021/06/21 15:19:38;;;;;;;7.82;4.93;;;;;;;;;;4880436;29;20379;-67
2021/06/21 15:22:05;;;;;;;6.75;4.32;;;;;;;;;;4897202;29;20040;-66
2021/06/21 15:24:31;;;;;;;8.10;3.97;;;;;;;;;;4897905;29;20067;-68
2021/06/21 15:26:57;;;;;;;7.68;4.60;;;;;;;;;;4897900;29;20556;-67
2021/06/21 15:29:24;;;;;;;9.75;4.82;;;;;;;;;;4897064;29;20028;-67
2021/06/21 15:31:50;;;;;;;8.38;4.70;;;;;;;;;;4898065;29;20769;-67
2021/06/21 15:34:16;;;;;;;12.90;5.15;;;;;;;;;;4897421;29;20021;-69
2021/06/21 15:36:43;;;;;;;10.40;4.85;;;;;;;;;;4880039;29;20044;-70
2021/06/21 15:39:09;;;;;;;10.13;4.80;;;;;;;;;;4897544;29;20029;-69
2021/06/21 15:41:35;;;;;;;6.20;4.40;;;;;;;;;;4896652;29;20032;-67
2021/06/21 15:44:01;;;;;;;6.38;4.20;;;;;;;;;;4896567;29;20028;-66
2021/06/21 15:46:27;;;;;;;5.25;4.55;;;;;;;;;;4897135;29;20033;-68
2021/06/21 15:48:53;;;;;;;5.50;4.07;;;;;;;;;;4897048;29;20028;-66
2021/06/21 15:51:19;;;;;;;10.60;4.50;;;;;;;;;;4896610;29;20122;-66
2021/06/21 15:53:46;;;;;;;10.05;5.00;;;;;;;;;;4896249;29;20039;-66
2021/06/21 15:56:13;;;;;;;6.80;4.32;;;;;;;;;;4893570;29;20112;-64
2021/06/21 15:58:39;;;;;;;6.13;4.28;;;;;;;;;;4893594;29;20036;-69
2021/06/21 16:01:06;;;;;;;7.00;4.90;;;;;;;;;;4895240;29;20025;-69
2021/06/21 16:03:32;;;;;;;7.28;4.15;;;;;;;;;;4891277;29;20029;-68
2021/06/21 16:05:58;;;;;;;7.30;4.47;;;;;;;;;;4895636;29;20029;-63
2021/06/21 16:08:24;;;;;;;7.15;4.55;;;;;;;;;;4880291;29;20112;-67
2021/06/21 16:10:51;;;;;;;7.68;4.43;;;;;;;;;;4886829;29;20457;-70
2021/06/21 16:13:21;;;;;;;6.63;4.78;;;;;;;;;;4893900;29;20079;-68
2021/06/21 16:15:47;;;;;;;9.98;4.80;;;;;;;;;;4889186;29;20028;-71
2021/06/21 16:18:14;;;;;;;6.88;4.63;;;;;;;;;;4861283;29;20042;-69
2021/06/21 16:20:40;;;;;;;8.93;5.20;;;;;;;;;;4875229;29;20061;-70
2021/06/21 16:23:09;;;;;;;7.55;5.00;;;;;;;;;;4885871;29;20119;-67
2021/06/21 16:25:35;;;;;;;5.90;4.80;;;;;;;;;;4894459;29;20165;-68
2021/06/21 16:28:02;;;;;;;6.97;4.07;;;;;;;;;;4896262;29;20476;-73
2021/06/21 16:30:34;;;;;;;6.07;4.28;;;;;;;;;;4888057;29;20052;-74
2021/06/21 16:33:00;;;;;;;;;;;;;;;;;;4881261;29;20013;-66
2021/06/21 16:35:26;;;;;;;10.95;5.03;;;;;;;;;;4876957;29;19918;-71
2021/06/21 16:37:54;;;;;;;8.07;4.80;;;;;;;;;;4877706;29;20032;-69
2021/06/21 16:40:21;;;;;;;7.47;4.50;;;;;;;;;;4879971;29;20032;-70
2021/06/21 16:42:48;;;;;;;6.40;4.25;;;;;;;;;;4895642;29;20028;-74
2021/06/21 16:45:14;;;;;;;9.27;4.50;;;;;;;;;;4891956;29;20108;-74
2021/06/21 16:47:41;;;;;;;6.13;4.40;;;;;;;;;;4882106;29;20024;-73
2021/06/21 16:50:07;;;;;;;8.40;4.70;;;;;;;;;;4875029;29;20045;-74
2021/06/21 16:52:34;;;;;;;7.05;4.18;;;;;;;;;;4874755;29;20059;-67
2021/06/21 16:55:07;;;;;;;8.80;4.68;;;;;;;;;;4872846;29;20033;-72
2021/06/21 16:57:33;;;;;;;9.35;4.50;;;;;;;;;;4877909;29;20052;-68
2021/06/21 16:59:59;;;;;;;8.23;4.32;;;;;;;;;;4877651;29;20029;-72
2021/06/21 17:02:25;;;;;;;6.70;4.63;;;;;;;;;;4878014;29;20068;-66
2021/06/21 17:04:51;;;;;;;10.75;4.63;;;;;;;;;;4877035;29;20354;-67
2021/06/21 17:07:17;;;;;;;7.45;4.53;;;;;;;;;;4860296;29;20401;-69
2021/06/21 17:09:43;;;;;;;8.68;4.80;;;;;;;;;;4860017;29;20448;-70
2021/06/21 17:12:09;;;;;;;6.28;4.47;;;;;;;;;;4877774;29;20434;-70
2021/06/21 17:14:35;;;;;;;8.77;4.43;;;;;;;;;;4877550;29;20032;-65
2021/06/21 17:17:01;;;;;;;7.30;4.90;;;;;;;;;;4877476;29;20487;-64
2021/06/21 17:19:27;;;;;;;8.68;4.78;;;;;;;;;;4876767;29;20048;-64
2021/06/21 17:21:53;;;;;;;8.30;4.60;;;;;;;;;;4877340;29;20032;-66
2021/06/21 17:24:19;;;;;;;10.48;4.68;;;;;;;;;;4877415;29;20035;-67
2021/06/21 17:26:45;;;;;;;9.00;5.00;;;;;;;;;;4877379;29;20036;-68
2021/06/21 17:29:12;;;;;;;10.70;5.40;;;;;;;;;;4877438;29;20033;-66
2021/06/21 17:31:38;;;;;;;8.77;4.78;;;;;;;;;;4877676;29;20375;-77
2021/06/21 17:34:04;;;;;;;9.65;5.25;;;;;;;;;;4877166;29;20053;-71
2021/06/21 17:36:30;;;;;;;9.18;5.35;;;;;;;;;;4877719;29;20041;-70
2021/06/21 17:38:56;;;;;;;10.73;5.22;;;;;;;;;;4877088;29;20083;-68
2021/06/21 17:41:22;;;;;;;9.93;5.28;;;;;;;;;;4879149;29;20036;-71
2021/06/21 17:43:48;;;;;;;8.35;5.32;;;;;;;;;;4885034;29;20122;-73
2021/06/21 17:46:15;;;;;;;10.82;4.95;;;;;;;;;;4884121;29;20095;-74
2021/06/21 17:48:41;;;;;;;11.43;6.07;;;;;;;;;;4883706;29;20048;-75
2021/06/21 17:51:07;;;;;;;8.18;5.10;;;;;;;;;;4885307;29;20079;-70
2021/06/21 17:53:33;;;;;;;7.88;5.00;;;;;;;;;;4882581;29;20022;-71
2021/06/21 17:55:59;;;;;;;8.15;5.10;;;;;;;;;;4884097;29;20028;-69
2021/06/21 17:58:25;;;;;;;11.98;5.55;;;;;;;;;;4885266;29;20055;-69
2021/06/21 18:00:56;;;;;;;11.15;5.22;;;;;;;;;;4895177;29;20036;-71
2021/06/21 18:03:23;;;;;;;8.57;5.50;;;;;;;;;;4891231;29;20035;-73
2021/06/21 18:05:49;;;;;;;10.45;6.55;;;;;;;;;;4882240;29;20103;-72